createdAt,value
2023-04-06T00:00:13.386Z,92.05
2023-04-06T00:04:22.400Z,92.73
2023-04-06T00:08:29.822Z,92.65
2023-04-06T00:12:34.809Z,94.19
2023-04-06T00:16:41.865Z,95.75
2023-04-06T00:20:44.608Z,98.01
2023-04-06T00:24:52.133Z,97.89
2023-04-06T00:29:00.730Z,99.04
2023-04-06T00:33:08.273Z,100.00
2023-04-06T00:37:16.889Z,100.00
2023-04-06T00:41:25.083Z,100.00
2023-04-06T00:45:34.920Z,100.00
2023-04-06T00:49:45.694Z,100.00
2023-04-06T00:53:52.742Z,100.00
2023-04-06T00:58:08.000Z,100.00
2023-04-06T01:02:26.320Z,100.00
2023-04-06T01:06:42.189Z,100.00
2023-04-06T01:11:21.797Z,100.00
2023-04-06T01:15:44.513Z,100.00
2023-04-06T01:19:57.049Z,100.00
2023-04-06T01:29:09.983Z,100.00
2023-04-06T01:33:47.123Z,100.00
2023-04-06T01:37:56.063Z,100.00
2023-04-06T01:42:13.887Z,100.00
2023-04-06T01:46:23.602Z,100.00
2023-04-06T01:50:35.150Z,100.00
2023-04-06T01:54:42.960Z,100.00
2023-04-06T01:58:58.980Z,100.00
2023-04-06T02:03:09.242Z,100.00
2023-04-06T02:07:23.145Z,100.00
2023-04-06T02:11:39.737Z,100.00
2023-04-06T02:15:52.859Z,100.00
2023-04-06T02:20:05.808Z,100.00
2023-04-06T02:24:14.051Z,100.00
2023-04-06T02:28:22.682Z,100.00
2023-04-06T02:32:29.093Z,100.00
2023-04-06T02:36:37.908Z,100.00
2023-04-06T02:41:08.509Z,100.00
2023-04-06T02:45:22.448Z,100.00
2023-04-06T02:49:35.420Z,100.00
2023-04-06T02:53:47.413Z,100.00
2023-04-06T02:58:12.238Z,100.00
2023-04-06T03:02:44.497Z,100.00
2023-04-06T03:07:07.750Z,100.00
2023-04-06T03:11:44.047Z,100.00
2023-04-06T03:15:49.843Z,100.00
2023-04-06T03:20:00.116Z,100.00
2023-04-06T03:24:15.394Z,100.00
2023-04-06T03:29:06.171Z,100.00
2023-04-06T03:33:51.968Z,100.00
2023-04-06T03:47:54.662Z,100.00
2023-04-06T03:52:00.123Z,100.00
2023-04-06T03:56:17.213Z,100.00
2023-04-06T04:00:26.630Z,100.00
2023-04-06T04:04:39.451Z,100.00
2023-04-06T04:08:52.164Z,100.00
2023-04-06T04:12:57.862Z,100.00
2023-04-06T04:17:02.941Z,100.00
2023-04-06T04:21:11.180Z,100.00
2023-04-06T04:25:19.226Z,100.00
2023-04-06T04:29:28.024Z,100.00
2023-04-06T04:33:34.568Z,100.00
2023-04-06T04:37:46.345Z,100.00
2023-04-06T04:41:59.419Z,100.00
2023-04-06T04:46:43.585Z,100.00
2023-04-06T04:50:51.360Z,100.00
2023-04-06T04:55:04.280Z,100.00
2023-04-06T04:59:14.836Z,100.00
2023-04-06T05:03:34.927Z,100.00
2023-04-06T05:07:43.319Z,100.00
2023-04-06T05:11:58.324Z,100.00
2023-04-06T05:16:02.006Z,100.00
2023-04-06T05:20:08.564Z,100.00
2023-04-06T05:24:19.219Z,100.00
2023-04-06T05:28:23.703Z,100.00
2023-04-06T05:32:26.572Z,100.00
2023-04-06T05:36:29.649Z,100.00
2023-04-06T05:40:31.973Z,100.00
2023-04-06T05:44:34.821Z,100.00
2023-04-06T05:48:43.002Z,100.00
2023-04-06T05:52:48.215Z,100.00
2023-04-06T05:56:53.496Z,100.00
2023-04-06T06:01:00.435Z,100.00
2023-04-06T06:05:11.709Z,100.00
2023-04-06T06:09:16.395Z,100.00
2023-04-06T06:13:28.264Z,100.00
2023-04-06T06:17:32.120Z,100.00
2023-04-06T06:21:34.509Z,100.00
2023-04-06T06:25:37.895Z,100.00
2023-04-06T06:29:41.189Z,100.00
2023-04-06T06:33:43.665Z,100.00
2023-04-06T06:37:46.105Z,99.56
2023-04-06T06:41:51.617Z,100.00
2023-04-06T06:45:59.953Z,100.00
2023-04-06T06:50:03.904Z,99.69
2023-04-06T06:54:06.172Z,97.87
2023-04-06T06:58:08.311Z,96.51
2023-04-06T07:02:10.571Z,97.59
2023-04-06T07:06:12.739Z,95.78
2023-04-06T07:10:16.074Z,95.20
2023-04-06T07:14:18.248Z,94.27
2023-04-06T07:18:22.471Z,92.16
2023-04-06T07:22:25.001Z,90.42
2023-04-06T07:26:28.833Z,89.06
2023-04-06T07:30:32.168Z,89.26
2023-04-06T07:34:35.494Z,90.31
2023-04-06T07:38:37.790Z,86.97
2023-04-06T07:42:40.086Z,87.79
2023-04-06T07:46:43.652Z,85.24
2023-04-06T07:50:45.919Z,82.58
2023-04-06T07:54:50.463Z,76.04
2023-04-06T07:58:54.373Z,71.89
2023-04-06T08:02:56.939Z,69.49
2023-04-06T08:06:59.169Z,68.01
2023-04-06T08:11:02.293Z,63.18
2023-04-06T08:15:05.670Z,60.97
2023-04-06T08:19:10.330Z,58.49
2023-04-06T08:23:12.518Z,57.44
2023-04-06T08:27:15.786Z,55.63
2023-04-06T08:31:18.252Z,55.33
2023-04-06T08:35:20.802Z,54.20
2023-04-06T08:39:26.539Z,50.35
2023-04-06T08:43:30.444Z,50.62
2023-04-06T08:47:32.729Z,50.00
2023-04-06T08:51:38.531Z,50.15
2023-04-06T08:55:41.443Z,50.06
2023-04-06T08:59:44.157Z,49.98
2023-04-06T09:03:49.666Z,47.55
2023-04-06T09:07:52.772Z,48.88
2023-04-06T09:11:55.203Z,46.87
2023-04-06T09:16:04.192Z,44.88
2023-04-06T09:20:06.872Z,47.06
2023-04-06T09:24:10.647Z,46.61
2023-04-06T09:28:13.381Z,46.87
2023-04-06T09:32:17.962Z,45.64
2023-04-06T09:36:21.047Z,45.71
2023-04-06T09:40:23.763Z,45.67
2023-04-06T09:44:25.867Z,44.87
2023-04-06T09:48:32.112Z,44.13
2023-04-06T09:52:43.574Z,43.97
2023-04-06T09:57:03.324Z,43.55
2023-04-06T10:01:16.711Z,42.63
2023-04-06T10:05:34.124Z,42.66
2023-04-06T10:09:38.204Z,42.51
2023-04-06T10:13:40.398Z,42.53
2023-04-06T10:17:42.774Z,43.00
2023-04-06T10:21:48.709Z,41.78
2023-04-06T10:25:56.827Z,41.27
2023-04-06T10:30:06.985Z,41.37
2023-04-06T10:38:13.633Z,42.34
2023-04-06T10:42:15.615Z,38.18
2023-04-06T10:46:27.376Z,40.17
2023-04-06T10:50:30.815Z,42.12
2023-04-06T10:54:33.861Z,41.95
2023-04-06T10:58:36.275Z,41.50
2023-04-06T11:02:41.920Z,41.94
2023-04-06T11:06:49.757Z,41.51
2023-04-06T11:10:52.081Z,40.80
2023-04-06T11:14:57.020Z,41.42
2023-04-06T11:19:01.351Z,41.29
2023-04-06T11:23:04.835Z,41.39
2023-04-06T11:27:07.420Z,41.44
2023-04-06T11:31:12.144Z,40.77
2023-04-06T11:35:24.945Z,38.25
2023-04-06T11:39:28.677Z,38.92
2023-04-06T11:43:31.818Z,38.90
2023-04-06T11:47:36.402Z,38.79
2023-04-06T11:51:38.830Z,38.80
2023-04-06T11:55:41.355Z,38.50
2023-04-06T11:59:44.148Z,38.25
2023-04-06T12:03:47.404Z,37.65
2023-04-06T12:07:49.626Z,38.27
2023-04-06T12:11:51.996Z,37.69
2023-04-06T12:15:54.144Z,37.91
2023-04-06T12:20:01.777Z,37.42
2023-04-06T12:24:07.793Z,37.47
2023-04-06T12:28:09.994Z,37.54
2023-04-06T12:32:12.825Z,37.53
2023-04-06T12:36:21.201Z,37.88
2023-04-06T12:40:23.546Z,38.20
2023-04-06T12:44:26.925Z,38.81
2023-04-06T12:48:29.275Z,38.31
2023-04-06T12:52:32.969Z,38.79
2023-04-06T12:56:35.092Z,37.24
2023-04-06T13:00:38.027Z,37.07
2023-04-06T13:04:41.737Z,37.24
2023-04-06T13:08:44.198Z,37.17
2023-04-06T13:12:46.743Z,37.54
2023-04-06T13:16:49.086Z,36.86
2023-04-06T13:20:51.552Z,36.07
2023-04-06T13:24:53.697Z,35.93
2023-04-06T13:28:57.815Z,35.63
2023-04-06T13:33:00.032Z,28.75
2023-04-06T13:37:02.255Z,35.30
2023-04-06T13:41:04.420Z,35.25
2023-04-06T13:45:09.514Z,34.73
2023-04-06T13:49:12.084Z,34.47
2023-04-06T13:53:15.731Z,34.14
2023-04-06T13:57:18.689Z,34.11
2023-04-06T14:01:21.039Z,34.27
2023-04-06T14:05:24.652Z,33.87
2023-04-06T14:09:26.980Z,33.31
2023-04-06T14:13:29.146Z,33.16
2023-04-06T14:17:31.593Z,32.76
2023-04-06T14:21:33.995Z,32.71
2023-04-06T14:25:36.374Z,32.89
2023-04-06T14:29:39.138Z,32.73
2023-04-06T14:33:43.149Z,32.69
2023-04-06T14:37:46.028Z,32.92
2023-04-06T14:41:49.851Z,32.78
2023-04-06T14:45:53.637Z,32.69
2023-04-06T14:49:56.023Z,32.76
2023-04-06T14:53:58.391Z,33.13
2023-04-06T14:58:00.940Z,33.45
2023-04-06T15:02:04.308Z,33.62
2023-04-06T15:06:08.094Z,33.48
2023-04-06T15:10:12.361Z,33.25
2023-04-06T15:14:14.634Z,33.65
2023-04-06T15:18:16.883Z,33.54
2023-04-06T15:22:19.120Z,33.28
2023-04-06T15:26:22.056Z,33.06
2023-04-06T15:30:25.297Z,32.90
2023-04-06T15:34:31.246Z,32.88
2023-04-06T15:38:34.068Z,33.24
2023-04-06T15:42:36.162Z,33.10
2023-04-06T15:46:38.718Z,33.55
2023-04-06T15:50:41.010Z,33.85
2023-04-06T15:54:43.090Z,33.43
2023-04-06T15:58:45.758Z,33.02
2023-04-06T16:02:48.005Z,33.09
2023-04-06T16:06:50.911Z,33.09
2023-04-06T16:10:53.012Z,32.97
2023-04-06T16:14:55.382Z,32.42
2023-04-06T16:18:57.419Z,32.05
2023-04-06T16:22:59.504Z,32.69
2023-04-06T16:27:01.837Z,32.23
2023-04-06T16:31:03.978Z,32.25
2023-04-06T16:35:06.825Z,32.70
2023-04-06T16:39:10.108Z,32.94
2023-04-06T16:43:12.594Z,33.60
2023-04-06T16:47:18.273Z,33.04
2023-04-06T16:51:20.909Z,32.75
2023-04-06T16:55:23.013Z,32.39
2023-04-06T16:59:25.031Z,31.84
2023-04-06T17:03:30.352Z,31.91
2023-04-06T17:07:33.983Z,31.09
2023-04-06T17:11:46.128Z,31.53
2023-04-06T17:15:49.133Z,31.32
2023-04-06T17:19:51.257Z,31.36
2023-04-06T17:23:53.339Z,32.15
2023-04-06T17:27:55.370Z,32.81
2023-04-06T17:31:57.508Z,34.13
2023-04-06T17:35:59.735Z,33.88
2023-04-06T17:40:02.008Z,34.11
2023-04-06T17:44:04.133Z,34.26
2023-04-06T17:48:06.796Z,34.52
2023-04-06T17:52:09.374Z,34.54
2023-04-06T17:56:11.517Z,34.91
2023-04-06T18:00:16.626Z,35.63
2023-04-06T18:04:18.763Z,35.74
2023-04-06T18:08:22.559Z,36.36
2023-04-06T18:12:24.684Z,36.19
2023-04-06T18:16:28.707Z,36.46
2023-04-06T18:20:31.018Z,36.75
2023-04-06T18:24:42.346Z,37.23
2023-04-06T18:28:45.540Z,37.73
2023-04-06T18:32:51.380Z,38.38
2023-04-06T18:36:53.697Z,38.63
2023-04-06T18:40:55.944Z,39.04
2023-04-06T18:44:58.355Z,40.21
2023-04-06T18:49:00.601Z,40.98
2023-04-06T18:53:03.188Z,41.14
2023-04-06T18:57:05.485Z,41.37
2023-04-06T19:01:07.514Z,41.94
2023-04-06T19:05:12.179Z,42.33
2023-04-06T19:09:14.397Z,41.82
2023-04-06T19:13:16.601Z,42.76
2023-04-06T19:17:19.698Z,43.85
2023-04-06T19:21:24.810Z,44.11
2023-04-06T19:25:26.924Z,45.31
2023-04-06T19:29:29.120Z,46.24
2023-04-06T19:33:31.276Z,46.32
2023-04-06T19:37:38.225Z,47.98
2023-04-06T19:41:40.659Z,50.24
2023-04-06T19:45:42.735Z,50.45
2023-04-06T19:49:45.074Z,48.34
2023-04-06T19:53:47.625Z,47.38
2023-04-06T19:57:49.724Z,49.49
2023-04-06T20:01:52.358Z,49.93
2023-04-06T20:05:54.595Z,52.65
2023-04-06T20:09:56.742Z,52.72
2023-04-06T20:13:59.054Z,52.56
2023-04-06T20:18:01.423Z,55.44
2023-04-06T20:22:03.812Z,57.07
2023-04-06T20:26:09.805Z,58.30
2023-04-06T20:30:15.425Z,59.02
2023-04-06T20:34:17.779Z,60.05
2023-04-06T20:38:31.930Z,61.18
2023-04-06T20:42:34.896Z,63.01
2023-04-06T20:46:37.190Z,62.45
2023-04-06T20:50:39.547Z,64.66
2023-04-06T20:54:41.747Z,64.25
2023-04-06T20:58:43.859Z,64.24
2023-04-06T21:02:46.605Z,64.08
2023-04-06T21:06:49.810Z,65.38
2023-04-06T21:10:51.900Z,65.44
2023-04-06T21:14:54.163Z,66.25
2023-04-06T21:18:56.280Z,66.82
2023-04-06T21:22:58.513Z,64.29
2023-04-06T21:27:00.697Z,68.43
2023-04-06T21:31:08.107Z,71.50
2023-04-06T21:35:10.958Z,71.21
2023-04-06T21:39:13.244Z,72.64
2023-04-06T21:43:15.669Z,72.78
2023-04-06T21:47:17.872Z,73.74
2023-04-06T21:51:21.585Z,77.57
2023-04-06T21:55:23.782Z,78.54
2023-04-06T21:59:25.917Z,77.85
2023-04-06T22:03:28.508Z,76.09
2023-04-06T22:07:30.966Z,82.63
2023-04-06T22:11:33.099Z,88.39
2023-04-06T22:15:35.814Z,84.88
2023-04-06T22:19:37.964Z,84.48
2023-04-06T22:23:42.641Z,86.02
2023-04-06T22:27:44.891Z,89.88
2023-04-06T22:31:47.432Z,89.58
2023-04-06T22:35:49.903Z,86.54
2023-04-06T22:39:52.161Z,87.60
2023-04-06T22:43:54.276Z,90.50
2023-04-06T22:47:56.395Z,88.80
2023-04-06T22:51:58.706Z,86.72
2023-04-06T22:56:00.846Z,86.91
2023-04-06T23:00:06.036Z,87.28
2023-04-06T23:04:14.918Z,93.14
2023-04-06T23:08:19.515Z,95.70
2023-04-06T23:12:21.901Z,95.70
2023-04-06T23:16:24.050Z,93.72
2023-04-06T23:20:26.396Z,91.19
2023-04-06T23:24:28.571Z,90.67
2023-04-06T23:28:31.480Z,93.59
2023-04-06T23:32:33.711Z,95.28
2023-04-06T23:36:36.064Z,94.52
2023-04-06T23:40:38.863Z,93.11
2023-04-06T23:44:40.992Z,93.38
2023-04-06T23:48:43.532Z,96.52
2023-04-06T23:52:45.949Z,100.00
2023-04-06T23:56:48.031Z,100.00
